createdAt,value
2019-02-27T00:00:44.620Z,1.61
2019-02-27T00:01:42.820Z,1.56
2019-02-27T00:02:43.633Z,1.56
2019-02-27T00:03:42.656Z,1.58
2019-02-27T00:04:43.063Z,1.56
2019-02-27T00:05:44.091Z,1.58
2019-02-27T00:06:48.631Z,1.56
2019-02-27T00:07:42.978Z,1.41
2019-02-27T00:08:42.679Z,1.38
2019-02-27T00:09:42.815Z,1.43
2019-02-27T00:10:44.506Z,1.29
2019-02-27T00:11:47.026Z,1.31
2019-02-27T00:12:43.246Z,1.27
2019-02-27T00:13:42.695Z,1.49
2019-02-27T00:14:43.643Z,1.39
2019-02-27T00:15:43.026Z,1.6
2019-02-27T00:16:45.449Z,1.66
2019-02-27T00:17:43.151Z,1.83
2019-02-27T00:18:42.670Z,1.68
2019-02-27T00:19:44.522Z,1.68
2019-02-27T00:20:43.070Z,1.88
2019-02-27T00:21:44.487Z,1.68
2019-02-27T00:22:42.665Z,1.7
2019-02-27T00:23:42.707Z,1.78
2019-02-27T00:24:42.783Z,2.03
2019-02-27T00:25:43.101Z,2.01
2019-02-27T00:26:43.283Z,1.97
2019-02-27T00:27:50.069Z,1.96
2019-02-27T00:28:42.826Z,2.09
2019-02-27T00:29:43.234Z,2.08
2019-02-27T00:30:42.655Z,1.99
2019-02-27T00:31:46.350Z,1.98
2019-02-27T00:32:43.049Z,1.88
2019-02-27T00:33:42.854Z,1.91
2019-02-27T00:34:44.486Z,1.74
2019-02-27T00:35:42.664Z,1.87
2019-02-27T00:36:45.846Z,1.81
2019-02-27T00:37:42.879Z,1.81
2019-02-27T00:38:42.815Z,1.81
2019-02-27T00:39:42.882Z,1.84
2019-02-27T00:40:42.639Z,1.74
2019-02-27T00:41:46.809Z,1.72
2019-02-27T00:42:42.684Z,1.72
2019-02-27T00:43:42.641Z,1.72
2019-02-27T00:44:42.630Z,1.65
2019-02-27T00:45:43.480Z,1.63
2019-02-27T00:46:47.161Z,1.52
2019-02-27T00:47:43.005Z,1.55
2019-02-27T00:48:44.157Z,1.55
2019-02-27T00:49:44.459Z,1.5
2019-02-27T00:50:42.715Z,1.49
2019-02-27T00:51:45.606Z,1.47
2019-02-27T00:52:42.633Z,1.46
2019-02-27T00:53:42.662Z,1.43
2019-02-27T00:54:42.975Z,1.39
2019-02-27T00:55:42.569Z,1.32
2019-02-27T00:56:45.834Z,1.3
2019-02-27T00:57:42.691Z,1.28
2019-02-27T00:58:43.115Z,1.25
2019-02-27T00:59:43.016Z,1.23
2019-02-27T01:00:43.097Z,1.19
2019-02-27T01:01:48.178Z,1.23
2019-02-27T01:02:42.834Z,1.22
2019-02-27T01:03:43.145Z,1.18
2019-02-27T01:04:42.787Z,1.15
2019-02-27T01:05:43.294Z,1.15
2019-02-27T01:06:48.243Z,1.14
2019-02-27T01:07:42.664Z,1.15
2019-02-27T01:08:42.889Z,1.09
2019-02-27T01:09:42.679Z,1.1
2019-02-27T01:10:46.064Z,1.09
2019-02-27T01:11:42.409Z,1.04
2019-02-27T01:12:42.997Z,1.07
2019-02-27T01:13:42.633Z,1.02
2019-02-27T01:14:43.437Z,0.93
2019-02-27T01:15:44.964Z,0.86
2019-02-27T01:16:42.932Z,1.06
2019-02-27T01:17:42.603Z,1.05
2019-02-27T01:18:43.048Z,1.03
2019-02-27T01:19:43.283Z,0.99
2019-02-27T01:20:46.777Z,1.03
2019-02-27T01:21:42.746Z,0.98
2019-02-27T01:22:42.615Z,0.96
2019-02-27T01:23:44.900Z,0.99
2019-02-27T01:24:42.708Z,0.99
2019-02-27T01:25:42.802Z,1
2019-02-27T01:26:42.592Z,0.97
2019-02-27T01:27:42.522Z,0.94
2019-02-27T01:28:45.798Z,0.89
2019-02-27T01:29:42.894Z,0.89
2019-02-27T01:30:43.074Z,0.89
2019-02-27T01:31:42.710Z,0.81
2019-02-27T01:32:44.385Z,0.82
2019-02-27T01:33:43.465Z,0.82
2019-02-27T01:34:45.207Z,0.84
2019-02-27T01:35:42.670Z,0.86
2019-02-27T01:36:42.940Z,0.8
2019-02-27T01:37:42.963Z,0.82
2019-02-27T01:38:42.702Z,0.74
2019-02-27T01:39:44.899Z,0.67
2019-02-27T01:40:44.380Z,0.62
2019-02-27T01:41:42.683Z,0.69
2019-02-27T01:42:44.386Z,0.68
2019-02-27T01:43:42.544Z,0.58
2019-02-27T01:44:47.358Z,0.84
2019-02-27T01:45:42.589Z,0.83
2019-02-27T01:46:42.507Z,0.82
2019-02-27T01:47:42.614Z,0.8
2019-02-27T01:48:43.980Z,0.87
2019-02-27T01:49:44.368Z,0.9
2019-02-27T01:50:42.711Z,0.77
2019-02-27T01:51:43.041Z,0.73
2019-02-27T01:52:42.749Z,0.64
2019-02-27T01:53:42.592Z,0.57
2019-02-27T01:54:49.665Z,0.69
2019-02-27T01:55:43.826Z,0.65
2019-02-27T01:56:42.870Z,0.64
2019-02-27T01:57:42.640Z,0.61
2019-02-27T01:58:44.530Z,0.73
2019-02-27T01:59:44.378Z,0.69
2019-02-27T02:00:42.806Z,0.53
2019-02-27T02:01:42.910Z,0.62
2019-02-27T02:02:42.559Z,0.66
2019-02-27T02:03:42.524Z,0.67
2019-02-27T02:04:42.609Z,0.67
2019-02-27T02:05:44.411Z,0.59
2019-02-27T02:06:42.948Z,0.51
2019-02-27T02:07:42.658Z,0.55
2019-02-27T02:08:48.822Z,0.56
2019-02-27T02:09:42.607Z,0.48
2019-02-27T02:10:42.585Z,0.45
2019-02-27T02:11:42.553Z,0.47
2019-02-27T02:12:42.697Z,0.35
2019-02-27T02:13:42.610Z,0.51
2019-02-27T02:14:42.895Z,0.54
2019-02-27T02:15:43.428Z,0.52
2019-02-27T02:16:43.215Z,0.56
2019-02-27T02:17:43.642Z,0.58
2019-02-27T02:18:48.941Z,0.6
2019-02-27T02:19:42.477Z,0.56
2019-02-27T02:20:42.727Z,0.57
2019-02-27T02:21:42.846Z,0.51
2019-02-27T02:22:42.865Z,0.47
2019-02-27T02:23:48.573Z,0.43
2019-02-27T02:24:42.548Z,0.48
2019-02-27T02:25:42.762Z,0.48
2019-02-27T02:26:42.856Z,0.45
2019-02-27T02:27:42.687Z,0.45
2019-02-27T02:28:42.454Z,0.42
2019-02-27T02:29:42.516Z,0.42
2019-02-27T02:30:44.329Z,0.38
2019-02-27T02:31:42.804Z,0.46
2019-02-27T02:32:42.495Z,0.41
2019-02-27T02:33:42.707Z,0.47
2019-02-27T02:34:42.585Z,0.43
2019-02-27T02:35:42.434Z,0.38
2019-02-27T02:36:42.562Z,0.32
2019-02-27T02:37:42.752Z,0.33
2019-02-27T02:38:43.465Z,0.31
2019-02-27T02:39:42.426Z,0.31
2019-02-27T02:40:42.538Z,0.28
2019-02-27T02:41:48.534Z,0.29
2019-02-27T02:42:42.821Z,0.28
2019-02-27T02:43:42.502Z,0.3
2019-02-27T02:44:44.504Z,0.26
2019-02-27T02:45:42.736Z,0.32
2019-02-27T02:46:46.546Z,0.28
2019-02-27T02:47:43.046Z,0.26
2019-02-27T02:48:43.034Z,0.28
2019-02-27T02:49:44.149Z,0.22
2019-02-27T02:50:42.933Z,0.27
2019-02-27T02:51:42.443Z,0.24
2019-02-27T02:52:42.421Z,0.06
2019-02-27T02:53:42.538Z,0.03
2019-02-27T02:54:42.394Z,-0.01
2019-02-27T02:55:49.501Z,0.1
2019-02-27T02:56:42.628Z,0.1
2019-02-27T02:57:42.442Z,0.12
2019-02-27T02:58:49.067Z,0.15
2019-02-27T02:59:42.683Z,0.1
2019-02-27T03:00:43.199Z,0.09
2019-02-27T03:01:50.340Z,0.08
2019-02-27T03:02:44.288Z,0.06
2019-02-27T03:03:42.740Z,0.02
2019-02-27T03:04:49.491Z,0.06
2019-02-27T03:05:42.431Z,0.05
2019-02-27T03:06:42.549Z,-0.03
2019-02-27T03:07:45.871Z,-0.02
2019-02-27T03:08:42.759Z,-0.01
2019-02-27T03:09:42.681Z,-0.08
2019-02-27T03:10:43.984Z,-0.06
2019-02-27T03:11:42.500Z,-0.03
2019-02-27T03:12:42.403Z,-0.03
2019-02-27T03:13:42.950Z,0.06
2019-02-27T03:14:42.412Z,0.1
2019-02-27T03:15:44.280Z,0.11
2019-02-27T03:16:42.629Z,0.07
2019-02-27T03:17:42.523Z,0.07
2019-02-27T03:18:42.528Z,0.06
2019-02-27T03:19:43.031Z,0.05
2019-02-27T03:20:42.459Z,0.07
2019-02-27T03:21:42.776Z,0.1
2019-02-27T03:22:42.486Z,0.07
2019-02-27T03:23:42.970Z,0.08
2019-02-27T03:24:42.423Z,0.09
2019-02-27T03:25:42.561Z,0.14
2019-02-27T03:26:42.358Z,0.14
2019-02-27T03:27:42.415Z,0.16
2019-02-27T03:28:42.578Z,0.14
2019-02-27T03:29:43.254Z,0.03
2019-02-27T03:30:42.429Z,0
2019-02-27T03:31:42.620Z,-0.12
2019-02-27T03:32:44.212Z,-0.06
2019-02-27T03:33:42.210Z,-0.11
2019-02-27T03:34:51.860Z,-0.15
2019-02-27T03:35:42.647Z,-0.16
2019-02-27T03:36:42.622Z,0.01
2019-02-27T03:37:49.587Z,0.01
2019-02-27T03:38:42.446Z,-0.12
2019-02-27T03:39:42.406Z,-0.09
2019-02-27T03:40:48.977Z,0
2019-02-27T03:41:42.357Z,0.01
2019-02-27T03:42:42.481Z,-0.03
2019-02-27T03:43:46.957Z,-0.02
2019-02-27T03:44:44.241Z,-0.06
2019-02-27T03:45:42.619Z,-0.08
2019-02-27T03:46:42.898Z,-0.06
2019-02-27T03:47:42.464Z,-0.09
2019-02-27T03:48:42.165Z,-0.16
2019-02-27T03:49:42.864Z,-0.11
2019-02-27T03:50:51.106Z,-0.06
2019-02-27T03:51:43.125Z,-0.08
2019-02-27T03:52:42.517Z,-0.1
2019-02-27T03:53:47.312Z,-0.1
2019-02-27T03:54:42.426Z,-0.16
2019-02-27T03:55:42.664Z,-0.07
2019-02-27T03:56:45.042Z,-0.12
2019-02-27T03:57:42.357Z,-0.16
2019-02-27T03:58:42.424Z,-0.13
2019-02-27T03:59:44.103Z,-0.15
2019-02-27T04:00:42.526Z,-0.2
2019-02-27T04:01:42.453Z,-0.25
2019-02-27T04:02:43.098Z,-0.21
2019-02-27T04:03:42.365Z,-0.23
2019-02-27T04:04:42.413Z,-0.23
2019-02-27T04:05:46.502Z,-0.28
2019-02-27T04:06:42.352Z,-0.34
2019-02-27T04:07:44.245Z,-0.39
2019-02-27T04:08:45.351Z,-0.42
2019-02-27T04:09:42.427Z,-0.44
2019-02-27T04:10:42.502Z,-0.48
2019-02-27T04:11:43.027Z,-0.5
2019-02-27T04:12:42.979Z,-0.3
2019-02-27T04:13:42.429Z,-0.21
2019-02-27T04:14:42.489Z,-0.24
2019-02-27T04:15:42.408Z,-0.34
2019-02-27T04:16:42.348Z,-0.3
2019-02-27T04:17:42.431Z,-0.37
2019-02-27T04:18:42.398Z,-0.41
2019-02-27T04:19:42.837Z,-0.29
2019-02-27T04:20:42.511Z,-0.24
2019-02-27T04:21:42.479Z,-0.25
2019-02-27T04:22:42.600Z,-0.29
2019-02-27T04:23:49.408Z,-0.33
2019-02-27T04:24:42.356Z,-0.33
2019-02-27T04:25:42.295Z,-0.42
2019-02-27T04:26:43.276Z,-0.27
2019-02-27T04:27:42.486Z,-0.23
2019-02-27T04:28:42.289Z,-0.31
2019-02-27T04:29:42.768Z,-0.42
2019-02-27T04:30:42.774Z,-0.26
2019-02-27T04:31:42.377Z,-0.34
2019-02-27T04:32:49.070Z,-0.43
2019-02-27T04:33:42.409Z,-0.5
2019-02-27T04:34:43.301Z,-0.55
2019-02-27T04:35:42.327Z,-0.56
2019-02-27T04:36:47.974Z,-0.39
2019-02-27T04:37:42.493Z,-0.34
2019-02-27T04:38:42.406Z,-0.33
2019-02-27T04:39:42.283Z,-0.41
2019-02-27T04:40:44.911Z,-0.48
2019-02-27T04:41:42.409Z,-0.34
2019-02-27T04:42:42.322Z,-0.3
2019-02-27T04:43:44.168Z,-0.34
2019-02-27T04:44:44.126Z,-0.35
2019-02-27T04:45:47.701Z,-0.35
2019-02-27T04:46:42.405Z,-0.47
2019-02-27T04:47:42.423Z,-0.43
2019-02-27T04:48:42.342Z,-0.52
2019-02-27T04:49:42.509Z,-0.47
2019-02-27T04:50:44.984Z,-0.49
2019-02-27T04:51:43.418Z,-0.37
2019-02-27T04:52:42.814Z,-0.31
2019-02-27T04:53:42.728Z,-0.31
2019-02-27T04:54:42.368Z,-0.27
2019-02-27T04:55:42.216Z,-0.33
2019-02-27T04:56:42.260Z,-0.28
2019-02-27T04:57:42.303Z,-0.24
2019-02-27T04:58:43.845Z,-0.23
2019-02-27T04:59:42.356Z,-0.28
2019-02-27T05:00:42.490Z,-0.31
2019-02-27T05:01:43.197Z,-0.27
2019-02-27T05:02:42.257Z,-0.34
2019-02-27T05:03:42.273Z,-0.36
2019-02-27T05:04:42.330Z,-0.4
2019-02-27T05:05:42.774Z,-0.4
2019-02-27T05:06:47.908Z,-0.49
2019-02-27T05:07:42.306Z,-0.44
2019-02-27T05:08:42.511Z,-0.47
2019-02-27T05:09:42.508Z,-0.5
2019-02-27T05:10:42.539Z,-0.53
2019-02-27T05:11:48.612Z,-0.5
2019-02-27T05:12:42.310Z,-0.5
2019-02-27T05:13:43.225Z,-0.5
2019-02-27T05:14:43.220Z,-0.5
2019-02-27T05:15:42.286Z,-0.53
2019-02-27T05:16:47.847Z,-0.54
2019-02-27T05:17:42.504Z,-0.54
2019-02-27T05:18:42.281Z,-0.61
2019-02-27T05:19:42.283Z,-0.65
2019-02-27T05:20:46.013Z,-0.66
2019-02-27T05:21:42.375Z,-0.56
2019-02-27T05:22:42.031Z,-0.32
2019-02-27T05:23:42.414Z,-0.48
2019-02-27T05:24:42.320Z,-0.6
2019-02-27T05:25:44.079Z,-0.57
2019-02-27T05:26:42.377Z,-0.58
2019-02-27T05:27:42.441Z,-0.66
2019-02-27T05:28:43.197Z,-0.7
2019-02-27T05:29:42.442Z,-0.73
2019-02-27T05:30:46.071Z,-0.61
2019-02-27T05:31:42.214Z,-0.45
2019-02-27T05:32:42.464Z,-0.52
2019-02-27T05:33:43.128Z,-0.59
2019-02-27T05:34:50.630Z,-0.59
2019-02-27T05:35:42.803Z,-0.51
2019-02-27T05:36:42.811Z,-0.51
2019-02-27T05:37:42.601Z,-0.47
2019-02-27T05:38:44.319Z,-0.54
2019-02-27T05:39:42.826Z,-0.6
2019-02-27T05:40:42.641Z,-0.58
2019-02-27T05:41:42.576Z,-0.58
2019-02-27T05:42:43.044Z,-0.54
2019-02-27T05:43:48.834Z,-0.63
2019-02-27T05:44:42.140Z,-0.63
2019-02-27T05:45:43.609Z,-0.6
2019-02-27T05:46:42.233Z,-0.6
2019-02-27T05:47:46.131Z,-0.61
2019-02-27T05:48:42.568Z,-0.73
2019-02-27T05:49:42.786Z,-0.76
2019-02-27T05:50:42.159Z,-0.8
2019-02-27T05:51:43.080Z,-0.73
2019-02-27T05:52:42.256Z,-0.62
2019-02-27T05:53:42.244Z,-0.66
2019-02-27T05:54:59.102Z,-0.71
2019-02-27T05:55:42.341Z,-0.77
2019-02-27T05:56:42.521Z,-0.76
2019-02-27T05:57:42.425Z,-0.84
2019-02-27T05:58:43.668Z,-0.83
2019-02-27T05:59:42.646Z,-0.8
2019-02-27T06:00:42.274Z,-0.84
2019-02-27T06:01:42.633Z,-0.85
2019-02-27T06:02:45.821Z,-0.86
2019-02-27T06:03:42.252Z,-0.83
2019-02-27T06:04:42.468Z,-0.84
2019-02-27T06:05:50.068Z,-0.84
2019-02-27T06:06:45.993Z,-0.84
2019-02-27T06:07:43.050Z,-0.87
2019-02-27T06:08:42.178Z,-0.9
2019-02-27T06:09:44.972Z,-0.95
2019-02-27T06:10:42.614Z,-0.94
2019-02-27T06:11:42.174Z,-0.88
2019-02-27T06:12:42.310Z,-0.89
2019-02-27T06:13:42.427Z,-0.92
2019-02-27T06:14:42.445Z,-0.94
2019-02-27T06:15:42.476Z,-0.92
2019-02-27T06:16:42.359Z,-0.97
2019-02-27T06:17:50.001Z,-0.97
2019-02-27T06:18:42.391Z,-0.95
2019-02-27T06:19:43.723Z,-1.03
2019-02-27T06:20:43.116Z,-0.98
2019-02-27T06:21:43.021Z,-0.98
2019-02-27T06:22:42.584Z,-0.94
2019-02-27T06:23:42.279Z,-0.98
2019-02-27T06:24:46.613Z,-0.95
2019-02-27T06:25:42.626Z,-0.99
2019-02-27T06:26:42.249Z,-1
2019-02-27T06:27:42.321Z,-0.99
2019-02-27T06:28:42.150Z,-0.96
2019-02-27T06:29:43.119Z,-0.99
2019-02-27T06:30:42.090Z,-0.96
2019-02-27T06:31:42.148Z,-0.97
2019-02-27T06:32:42.984Z,-1.03
2019-02-27T06:33:46.076Z,-1.13
2019-02-27T06:34:42.312Z,-1.13
2019-02-27T06:35:42.180Z,-1.1
2019-02-27T06:36:43.204Z,-1.1
2019-02-27T06:37:42.584Z,-1.11
2019-02-27T06:38:42.208Z,-1.1
2019-02-27T06:39:43.351Z,-1.07
2019-02-27T06:40:43.103Z,-1.13
2019-02-27T06:41:42.537Z,-1.08
2019-02-27T06:42:43.044Z,-1
2019-02-27T06:43:42.441Z,-1.1
2019-02-27T06:44:42.541Z,-1
2019-02-27T06:45:46.765Z,-1.1
2019-02-27T06:46:42.105Z,-1.06
2019-02-27T06:47:42.333Z,-1.05
2019-02-27T06:48:44.285Z,-0.98
2019-02-27T06:49:42.671Z,-0.96
2019-02-27T06:50:42.106Z,-0.96
2019-02-27T06:51:42.137Z,-1.04
2019-02-27T06:52:43.238Z,-0.95
2019-02-27T06:53:42.192Z,-1.02
2019-02-27T06:54:43.099Z,-0.92
2019-02-27T06:55:42.245Z,-0.83
2019-02-27T06:56:42.089Z,-0.84
2019-02-27T06:57:42.176Z,-0.82
2019-02-27T06:58:42.073Z,-0.76
2019-02-27T06:59:42.312Z,-0.72
2019-02-27T07:00:42.353Z,-0.72
2019-02-27T07:01:42.045Z,-0.73
2019-02-27T07:02:42.227Z,-0.65
2019-02-27T07:03:42.417Z,-0.68
2019-02-27T07:04:42.862Z,-0.69
2019-02-27T07:05:48.946Z,-0.75
2019-02-27T07:06:42.384Z,-0.62
2019-02-27T07:07:42.382Z,-0.66
2019-02-27T07:08:42.073Z,-0.52
2019-02-27T07:09:46.639Z,-0.62
2019-02-27T07:10:42.415Z,-0.49
2019-02-27T07:11:49.078Z,-0.48
2019-02-27T07:12:42.211Z,-0.47
2019-02-27T07:13:42.008Z,-0.45
2019-02-27T07:14:41.877Z,-0.4
2019-02-27T07:15:48.942Z,-0.47
2019-02-27T07:16:42.746Z,-0.35
2019-02-27T07:17:42.244Z,-0.24
2019-02-27T07:18:42.623Z,-0.32
2019-02-27T07:19:42.465Z,-0.39
2019-02-27T07:20:42.581Z,-0.28
2019-02-27T07:21:42.117Z,-0.31
2019-02-27T07:22:46.919Z,-0.25
2019-02-27T07:23:43.882Z,-0.35
2019-02-27T07:24:42.145Z,-0.27
2019-02-27T07:25:43.871Z,-0.19
2019-02-27T07:26:41.835Z,-0.13
2019-02-27T07:27:41.849Z,-0.23
2019-02-27T07:28:44.246Z,-0.01
2019-02-27T07:29:43.209Z,0.01
2019-02-27T07:30:43.391Z,0.03
2019-02-27T07:31:42.690Z,0.02
2019-02-27T07:32:43.867Z,0.1
2019-02-27T07:33:41.868Z,0.17
2019-02-27T07:34:41.829Z,0.1
2019-02-27T07:35:42.115Z,0.21
2019-02-27T07:36:42.210Z,0.26
2019-02-27T07:37:48.441Z,0.24
2019-02-27T07:38:43.877Z,0.25
2019-02-27T07:39:42.367Z,0.29
2019-02-27T07:40:43.697Z,0.22
2019-02-27T07:41:43.832Z,0.34
2019-02-27T07:42:41.832Z,0.38
2019-02-27T07:43:41.826Z,0.37
2019-02-27T07:44:42.614Z,0.26
2019-02-27T07:45:46.349Z,0.34
2019-02-27T07:46:41.801Z,0.42
2019-02-27T07:47:41.986Z,0.5
2019-02-27T07:48:41.801Z,0.51
2019-02-27T07:49:42.765Z,0.43
2019-02-27T07:50:42.293Z,0.39
2019-02-27T07:51:42.357Z,0.53
2019-02-27T07:52:42.268Z,0.58
2019-02-27T07:53:42.492Z,0.6
2019-02-27T07:54:42.375Z,0.73
2019-02-27T07:55:42.107Z,0.8
2019-02-27T07:56:42.140Z,0.87
2019-02-27T07:57:42.620Z,0.94
2019-02-27T07:58:42.610Z,1
2019-02-27T07:59:42.419Z,0.97
2019-02-27T08:00:43.096Z,0.95
2019-02-27T08:01:44.407Z,1.02
2019-02-27T08:02:42.727Z,1.18
2019-02-27T08:03:46.162Z,1.21
2019-02-27T08:04:43.813Z,1.15
2019-02-27T08:05:42.000Z,1.05
2019-02-27T08:06:42.366Z,1.1
2019-02-27T08:07:42.061Z,1.12
2019-02-27T08:08:42.069Z,1.19
2019-02-27T08:09:42.482Z,1.25
2019-02-27T08:10:42.150Z,1.38
2019-02-27T08:11:48.071Z,1.32
2019-02-27T08:12:42.410Z,1.4
2019-02-27T08:13:42.410Z,1.45
2019-02-27T08:14:42.041Z,1.42
2019-02-27T08:15:42.059Z,1.37
2019-02-27T08:16:42.231Z,1.37
2019-02-27T08:17:42.849Z,1.51
2019-02-27T08:18:42.136Z,1.5
2019-02-27T08:19:46.349Z,1.64
2019-02-27T08:20:42.060Z,1.65
2019-02-27T08:21:42.084Z,1.56
2019-02-27T08:22:42.085Z,1.64
2019-02-27T08:23:42.152Z,1.57
2019-02-27T08:24:42.487Z,1.5
2019-02-27T08:25:42.780Z,1.55
2019-02-27T08:26:42.330Z,1.58
2019-02-27T08:27:44.043Z,1.62
2019-02-27T08:28:42.311Z,1.64
2019-02-27T08:29:42.081Z,1.56
2019-02-27T08:30:42.036Z,1.6
2019-02-27T08:31:42.075Z,1.61
2019-02-27T08:32:42.140Z,1.69
2019-02-27T08:33:42.072Z,1.68
2019-02-27T08:34:42.367Z,1.67
2019-02-27T08:35:42.836Z,1.69
2019-02-27T08:36:43.624Z,1.85
2019-02-27T08:37:42.037Z,1.84
2019-02-27T08:38:42.068Z,1.8
2019-02-27T08:39:42.580Z,1.71
2019-02-27T08:40:42.093Z,1.75
2019-02-27T08:41:42.301Z,1.86
2019-02-27T08:42:41.913Z,1.57
2019-02-27T08:43:42.127Z,1.72
2019-02-27T08:44:46.854Z,1.73
2019-02-27T08:45:42.725Z,1.77
2019-02-27T08:46:41.935Z,1.69
2019-02-27T08:47:44.749Z,1.78
2019-02-27T08:48:42.137Z,1.81
2019-02-27T08:49:42.132Z,1.71
2019-02-27T08:50:41.716Z,1.74
2019-02-27T08:51:42.806Z,1.33
2019-02-27T08:52:41.755Z,1.28
2019-02-27T08:53:41.880Z,1.11
2019-02-27T08:54:42.281Z,1.03
2019-02-27T08:55:42.378Z,1.2
2019-02-27T08:56:48.044Z,1.21
2019-02-27T08:57:42.510Z,1.25
2019-02-27T08:58:42.878Z,1.17
2019-02-27T08:59:42.082Z,1.2
2019-02-27T09:00:41.962Z,1.16
2019-02-27T09:01:42.523Z,1.2
2019-02-27T09:02:42.027Z,1.22
2019-02-27T09:03:42.154Z,1.26
2019-02-27T09:04:46.280Z,1.34
2019-02-27T09:05:42.655Z,1.47
2019-02-27T09:06:42.256Z,1.44
2019-02-27T09:07:43.303Z,1.52
2019-02-27T09:08:44.491Z,1.5
2019-02-27T09:09:42.104Z,1.61
2019-02-27T09:10:41.983Z,1.69
2019-02-27T09:11:42.479Z,1.65
2019-02-27T09:12:41.975Z,1.63
2019-02-27T09:13:42.093Z,1.7
2019-02-27T09:14:41.904Z,1.62
2019-02-27T09:15:43.734Z,1.75
2019-02-27T09:16:42.717Z,1.82
2019-02-27T09:17:42.055Z,1.87
2019-02-27T09:18:44.392Z,1.81
2019-02-27T09:19:46.606Z,1.77
2019-02-27T09:20:42.561Z,1.78
2019-02-27T09:21:41.849Z,1.75
2019-02-27T09:22:42.013Z,1.72
2019-02-27T09:23:42.712Z,1.67
2019-02-27T09:24:42.817Z,1.89
2019-02-27T09:25:42.544Z,1.94
2019-02-27T09:26:42.676Z,1.97
2019-02-27T09:27:42.389Z,1.88
2019-02-27T09:28:45.339Z,1.87
2019-02-27T09:29:42.195Z,1.87
2019-02-27T09:30:41.829Z,1.87
2019-02-27T09:31:51.319Z,2.06
2019-02-27T09:32:46.854Z,1.96
2019-02-27T09:33:41.882Z,2.08
2019-02-27T09:34:42.669Z,2.04
2019-02-27T09:35:42.153Z,2.01
2019-02-27T09:36:43.992Z,2.21
2019-02-27T09:37:42.566Z,2.19
2019-02-27T09:38:41.969Z,2.08
2019-02-27T09:39:42.707Z,2.04
2019-02-27T09:40:42.092Z,2.17
2019-02-27T09:41:47.227Z,2.15
2019-02-27T09:42:41.678Z,2.16
2019-02-27T09:43:41.648Z,2.04
2019-02-27T09:44:41.661Z,2.24
2019-02-27T09:45:47.273Z,2.35
2019-02-27T09:46:41.636Z,2.38
2019-02-27T09:47:41.668Z,2.31
2019-02-27T09:48:42.124Z,2.35
2019-02-27T09:49:42.026Z,2.34
2019-02-27T09:50:49.267Z,2.41
2019-02-27T09:51:41.785Z,2.5
2019-02-27T09:52:41.855Z,2.48
2019-02-27T09:53:42.153Z,2.69
2019-02-27T09:54:47.741Z,2.47
2019-02-27T09:55:41.785Z,2.48
2019-02-27T09:56:41.845Z,2.57
2019-02-27T09:57:42.189Z,2.47
2019-02-27T09:58:46.417Z,2.53
2019-02-27T09:59:41.836Z,2.54
2019-02-27T10:00:42.043Z,2.75
2019-02-27T10:01:41.627Z,2.48
2019-02-27T10:02:47.113Z,2.56
2019-02-27T10:03:42.727Z,2.6
2019-02-27T10:04:41.808Z,2.61
2019-02-27T10:05:43.633Z,2.61
2019-02-27T10:06:43.710Z,2.68
2019-02-27T10:07:41.757Z,2.72
2019-02-27T10:08:41.946Z,2.54
2019-02-27T10:09:41.990Z,2.65
2019-02-27T10:10:46.240Z,2.58
2019-02-27T10:11:41.772Z,2.52
2019-02-27T10:12:42.538Z,2.49
2019-02-27T10:13:42.107Z,2.6
2019-02-27T10:14:42.735Z,2.49
2019-02-27T10:15:42.105Z,2.55
2019-02-27T10:16:41.783Z,2.59
2019-02-27T10:17:44.395Z,2.48
2019-02-27T10:18:42.129Z,2.63
2019-02-27T10:19:42.043Z,2.9
2019-02-27T10:20:43.642Z,2.88
2019-02-27T10:21:47.692Z,2.83
2019-02-27T10:22:42.047Z,2.9
2019-02-27T10:23:41.800Z,2.8
2019-02-27T10:24:43.622Z,2.98
2019-02-27T10:25:44.315Z,2.99
2019-02-27T10:26:42.182Z,3.08
2019-02-27T10:27:42.091Z,3.05
2019-02-27T10:28:44.223Z,2.93
2019-02-27T10:29:41.860Z,3.16
2019-02-27T10:30:41.786Z,2.8
2019-02-27T10:31:42.195Z,2.9
2019-02-27T10:32:42.200Z,3.06
2019-02-27T10:33:43.905Z,3.12
2019-02-27T10:34:42.121Z,2.94
2019-02-27T10:35:42.231Z,3.07
2019-02-27T10:36:42.637Z,3.28
2019-02-27T10:37:42.390Z,3.22
2019-02-27T10:38:45.697Z,3.26
2019-02-27T10:39:42.255Z,3.04
2019-02-27T10:40:42.159Z,3.38
2019-02-27T10:41:42.060Z,3.13
2019-02-27T10:42:42.071Z,3.18
2019-02-27T10:43:41.992Z,3.13
2019-02-27T10:44:43.599Z,3.09
2019-02-27T10:45:42.507Z,3.08
2019-02-27T10:46:41.745Z,3.11
2019-02-27T10:47:42.934Z,2.98
2019-02-27T10:48:43.592Z,3.11
2019-02-27T10:49:41.756Z,3.1
2019-02-27T10:50:41.805Z,3.25
2019-02-27T10:51:44.518Z,3.14
2019-02-27T10:52:41.784Z,3.15
2019-02-27T10:53:42.595Z,3.17
2019-02-27T10:54:41.828Z,3.29
2019-02-27T10:55:42.324Z,3.32
2019-02-27T10:56:42.575Z,3.08
2019-02-27T10:57:41.756Z,3.06
2019-02-27T10:58:41.718Z,3.54
2019-02-27T10:59:41.849Z,3.49
2019-02-27T11:00:42.725Z,3.62
2019-02-27T11:01:41.797Z,3.42
2019-02-27T11:02:41.805Z,3.47
2019-02-27T11:03:43.544Z,3.38
2019-02-27T11:04:43.079Z,3.3
2019-02-27T11:05:42.026Z,3.32
2019-02-27T11:06:41.809Z,3.26
2019-02-27T11:07:41.798Z,3.65
2019-02-27T11:08:41.698Z,3.55
2019-02-27T11:09:43.089Z,3.39
2019-02-27T11:10:42.267Z,3.1
2019-02-27T11:11:42.371Z,3.36
2019-02-27T11:12:42.081Z,3.33
2019-02-27T11:13:42.009Z,3.41
2019-02-27T11:14:41.765Z,3.29
2019-02-27T11:15:45.894Z,3.43
2019-02-27T11:16:42.108Z,3.4
2019-02-27T11:17:41.734Z,3.59
2019-02-27T11:18:42.989Z,3.41
2019-02-27T11:19:43.145Z,3.34
2019-02-27T11:20:42.229Z,3.48
2019-02-27T11:21:41.734Z,3.58
2019-02-27T11:22:42.047Z,3.75
2019-02-27T11:23:41.999Z,3.99
2019-02-27T11:24:42.150Z,4.1
2019-02-27T11:25:41.964Z,3.8
2019-02-27T11:26:41.801Z,3.92
2019-02-27T11:27:41.727Z,3.28
2019-02-27T11:28:48.450Z,3.15
2019-02-27T11:29:41.717Z,3.11
2019-02-27T11:30:42.703Z,3.33
2019-02-27T11:31:46.333Z,3.44
2019-02-27T11:32:42.587Z,3.27
2019-02-27T11:33:41.813Z,3.38
2019-02-27T11:34:49.325Z,3.37
2019-02-27T11:35:41.821Z,3.48
2019-02-27T11:36:42.019Z,3.63
2019-02-27T11:37:47.841Z,3.67
2019-02-27T11:38:41.749Z,3.32
2019-02-27T11:39:41.633Z,3.36
2019-02-27T11:40:43.093Z,3.87
2019-02-27T11:41:41.980Z,3.47
2019-02-27T11:42:42.093Z,3.23
2019-02-27T11:43:42.103Z,3.61
2019-02-27T11:44:42.599Z,3.65
2019-02-27T11:45:42.211Z,3.72
2019-02-27T11:46:41.819Z,3.54
2019-02-27T11:47:48.349Z,3.12
2019-02-27T11:48:42.023Z,3.12
2019-02-27T11:49:43.553Z,3.23
2019-02-27T11:50:41.692Z,3.31
2019-02-27T11:51:42.025Z,3.54
2019-02-27T11:52:49.430Z,3.48
2019-02-27T11:53:41.904Z,3
2019-02-27T11:54:44.028Z,3.33
2019-02-27T11:55:42.452Z,3.37
2019-02-27T11:56:41.780Z,3.71
2019-02-27T11:57:43.445Z,3.58
2019-02-27T11:58:41.817Z,3.16
2019-02-27T11:59:47.621Z,3.29
2019-02-27T12:00:41.993Z,2.67
2019-02-27T12:01:41.678Z,2.64
2019-02-27T12:02:41.780Z,2.53
2019-02-27T12:03:46.651Z,2.06
2019-02-27T12:04:41.890Z,1.94
2019-02-27T12:05:41.691Z,2.25
2019-02-27T12:06:42.390Z,2.24
2019-02-27T12:07:43.471Z,2.05
2019-02-27T12:08:41.736Z,2.37
2019-02-27T12:09:43.073Z,2.43
2019-02-27T12:10:41.692Z,2.61
2019-02-27T12:11:49.537Z,2.61
2019-02-27T12:12:42.422Z,2.87
2019-02-27T12:13:41.722Z,2.91
2019-02-27T12:14:42.094Z,2.93
2019-02-27T12:15:44.504Z,2.9
2019-02-27T12:16:42.732Z,3.45
2019-02-27T12:17:41.611Z,2.76
2019-02-27T12:18:41.910Z,2.56
2019-02-27T12:19:45.527Z,2.43
2019-02-27T12:20:41.827Z,2.22
2019-02-27T12:21:41.661Z,3
2019-02-27T12:22:42.153Z,3.09
2019-02-27T12:23:44.994Z,3.69
2019-02-27T12:24:41.693Z,3.32
2019-02-27T12:25:41.852Z,3.34
2019-02-27T12:26:41.696Z,3.03
2019-02-27T12:27:50.186Z,3.77
2019-02-27T12:28:41.700Z,3.66
2019-02-27T12:29:41.999Z,3.76
2019-02-27T12:30:41.709Z,3.63
2019-02-27T12:31:42.292Z,3.87
2019-02-27T12:32:42.201Z,3.91
2019-02-27T12:33:41.649Z,3.86
2019-02-27T12:34:41.791Z,3.51
2019-02-27T12:35:45.200Z,3.52
2019-02-27T12:36:41.667Z,3.42
2019-02-27T12:37:41.699Z,3.13
2019-02-27T12:38:42.715Z,3.15
2019-02-27T12:39:43.765Z,3.07
2019-02-27T12:40:42.079Z,3.51
2019-02-27T12:41:41.580Z,3.54
2019-02-27T12:42:43.345Z,3.87
2019-02-27T12:43:41.769Z,3.7
2019-02-27T12:44:41.634Z,3.38
2019-02-27T12:45:41.656Z,3.21
2019-02-27T12:46:42.200Z,3.06
2019-02-27T12:47:41.819Z,3.24
2019-02-27T12:48:47.255Z,3.25
2019-02-27T12:49:41.846Z,2.71
2019-02-27T12:50:41.380Z,2.78
2019-02-27T12:51:41.678Z,3.02
2019-02-27T12:52:48.333Z,2.75
2019-02-27T12:53:42.699Z,2.98
2019-02-27T12:54:42.133Z,3.14
2019-02-27T12:55:42.397Z,3.32
2019-02-27T12:56:44.678Z,3.6
2019-02-27T12:57:41.582Z,3.2
2019-02-27T12:58:41.626Z,3.14
2019-02-27T12:59:41.771Z,3.38
2019-02-27T13:00:43.271Z,3.12
2019-02-27T13:01:43.133Z,3.22
2019-02-27T13:02:42.082Z,2.69
2019-02-27T13:03:43.185Z,2.77
2019-02-27T13:04:41.533Z,2.56
2019-02-27T13:05:41.816Z,2.71
2019-02-27T13:06:41.826Z,2.57
2019-02-27T13:07:45.647Z,2.79
2019-02-27T13:08:41.664Z,2.58
2019-02-27T13:09:41.823Z,2.78
2019-02-27T13:10:41.628Z,2.75
2019-02-27T13:11:45.176Z,3.33
2019-02-27T13:12:41.619Z,2.74
2019-02-27T13:13:41.644Z,2.6